sensor_id;sensor_type;location;lat;lon;timestamp;pressure;altitude;pressure_sealevel;temperature;humidity
78064;BME280;67429;51.596;-3.264;2023-04-03T00:00:17;100897.50;;;3.31;54.66
78064;BME280;67429;51.596;-3.264;2023-04-03T00:02:42;100901.95;;;3.23;54.41
78064;BME280;67429;51.596;-3.264;2023-04-03T00:05:08;100900.77;;;3.22;54.43
78064;BME280;67429;51.596;-3.264;2023-04-03T00:07:33;100898.20;;;2.70;54.38
78064;BME280;67429;51.596;-3.264;2023-04-03T00:10:00;100890.91;;;3.25;54.03
78064;BME280;67429;51.596;-3.264;2023-04-03T00:12:25;100890.21;;;3.05;54.63
78064;BME280;67429;51.596;-3.264;2023-04-03T00:14:51;100887.46;;;3.21;53.98
78064;BME280;67429;51.596;-3.264;2023-04-03T00:17:17;100883.11;;;3.24;53.53
78064;BME280;67429;51.596;-3.264;2023-04-03T00:19:42;100885.81;;;3.00;53.76
78064;BME280;67429;51.596;-3.264;2023-04-03T00:22:08;100881.14;;;3.00;53.43
78064;BME280;67429;51.596;-3.264;2023-04-03T00:24:34;100879.28;;;2.88;54.37
78064;BME280;67429;51.596;-3.264;2023-04-03T00:27:00;100878.62;;;3.55;53.19
78064;BME280;67429;51.596;-3.264;2023-04-03T00:29:25;100875.08;;;3.23;53.12
78064;BME280;67429;51.596;-3.264;2023-04-03T00:31:50;100872.06;;;3.75;51.64
78064;BME280;67429;51.596;-3.264;2023-04-03T00:34:16;100870.52;;;3.97;51.85
78064;BME280;67429;51.596;-3.264;2023-04-03T00:36:43;100870.98;;;4.05;51.18
78064;BME280;67429;51.596;-3.264;2023-04-03T00:39:08;100868.94;;;3.87;51.59
78064;BME280;67429;51.596;-3.264;2023-04-03T00:41:33;100869.93;;;4.11;51.22
78064;BME280;67429;51.596;-3.264;2023-04-03T00:44:00;100876.63;;;4.15;51.24
78064;BME280;67429;51.596;-3.264;2023-04-03T00:46:25;100874.41;;;3.18;53.42
78064;BME280;67429;51.596;-3.264;2023-04-03T00:48:50;100872.52;;;3.36;52.91
78064;BME280;67429;51.596;-3.264;2023-04-03T00:51:19;100875.59;;;3.89;51.95
78064;BME280;67429;51.596;-3.264;2023-04-03T00:53:45;100874.06;;;3.63;52.15
78064;BME280;67429;51.596;-3.264;2023-04-03T00:56:09;100872.23;;;3.82;52.47
78064;BME280;67429;51.596;-3.264;2023-04-03T00:58:35;100869.02;;;3.04;53.35
78064;BME280;67429;51.596;-3.264;2023-04-03T01:00:59;100870.51;;;2.31;55.16
78064;BME280;67429;51.596;-3.264;2023-04-03T01:03:24;100869.92;;;2.77;55.08
78064;BME280;67429;51.596;-3.264;2023-04-03T01:05:49;100870.89;;;2.36;55.58
78064;BME280;67429;51.596;-3.264;2023-04-03T01:08:15;100871.66;;;3.00;54.66
78064;BME280;67429;51.596;-3.264;2023-04-03T01:10:40;100865.53;;;3.38;53.13
78064;BME280;67429;51.596;-3.264;2023-04-03T01:13:20;100874.11;;;3.31;52.71
78064;BME280;67429;51.596;-3.264;2023-04-03T01:15:31;100872.84;;;3.65;52.46
78064;BME280;67429;51.596;-3.264;2023-04-03T01:17:57;100874.15;;;3.72;51.85
78064;BME280;67429;51.596;-3.264;2023-04-03T01:22:54;100869.93;;;3.25;53.08
78064;BME280;67429;51.596;-3.264;2023-04-03T01:25:13;100876.46;;;3.08;53.16
78064;BME280;67429;51.596;-3.264;2023-04-03T01:27:39;100874.68;;;1.82;55.79
78064;BME280;67429;51.596;-3.264;2023-04-03T01:30:06;100867.25;;;1.68;57.61
78064;BME280;67429;51.596;-3.264;2023-04-03T01:32:29;100871.11;;;1.77;56.54
78064;BME280;67429;51.596;-3.264;2023-04-03T01:34:55;100867.78;;;1.79;57.70
78064;BME280;67429;51.596;-3.264;2023-04-03T01:37:20;100871.96;;;1.84;56.91
78064;BME280;67429;51.596;-3.264;2023-04-03T01:39:46;100874.77;;;2.47;54.28
78064;BME280;67429;51.596;-3.264;2023-04-03T01:42:11;100875.81;;;2.49;54.10
78064;BME280;67429;51.596;-3.264;2023-04-03T01:44:37;100874.74;;;2.28;54.53
78064;BME280;67429;51.596;-3.264;2023-04-03T01:47:02;100878.28;;;2.22;54.52
78064;BME280;67429;51.596;-3.264;2023-04-03T01:49:28;100879.31;;;1.77;56.51
78064;BME280;67429;51.596;-3.264;2023-04-03T01:51:53;100880.99;;;2.61;54.80
78064;BME280;67429;51.596;-3.264;2023-04-03T01:54:18;100883.40;;;1.79;56.25
78064;BME280;67429;51.596;-3.264;2023-04-03T01:56:43;100877.41;;;1.91;56.34
78064;BME280;67429;51.596;-3.264;2023-04-03T01:59:09;100878.12;;;1.80;56.49
78064;BME280;67429;51.596;-3.264;2023-04-03T02:01:34;100881.19;;;2.31;55.01
78064;BME280;67429;51.596;-3.264;2023-04-03T02:04:01;100873.03;;;1.92;55.61
78064;BME280;67429;51.596;-3.264;2023-04-03T02:06:26;100879.49;;;2.29;55.39
78064;BME280;67429;51.596;-3.264;2023-04-03T02:08:50;100879.31;;;2.93;53.37
78064;BME280;67429;51.596;-3.264;2023-04-03T02:11:16;100873.03;;;3.22;52.24
78064;BME280;67429;51.596;-3.264;2023-04-03T02:13:41;100876.49;;;2.55;53.34
78064;BME280;67429;51.596;-3.264;2023-04-03T02:16:08;100875.96;;;2.72;53.87
78064;BME280;67429;51.596;-3.264;2023-04-03T02:18:32;100876.46;;;2.98;52.95
78064;BME280;67429;51.596;-3.264;2023-04-03T02:20:57;100875.53;;;2.99;52.28
78064;BME280;67429;51.596;-3.264;2023-04-03T02:23:25;100873.23;;;2.72;53.22
78064;BME280;67429;51.596;-3.264;2023-04-03T02:25:48;100874.20;;;2.52;54.08
78064;BME280;67429;51.596;-3.264;2023-04-03T02:28:13;100870.54;;;2.82;52.96
78064;BME280;67429;51.596;-3.264;2023-04-03T02:30:39;100870.87;;;2.24;54.06
78064;BME280;67429;51.596;-3.264;2023-04-03T02:33:04;100875.19;;;2.27;54.38
78064;BME280;67429;51.596;-3.264;2023-04-03T02:35:30;100872.60;;;2.03;54.32
78064;BME280;67429;51.596;-3.264;2023-04-03T02:37:55;100869.18;;;1.80;55.44
78064;BME280;67429;51.596;-3.264;2023-04-03T02:40:21;100872.11;;;2.11;55.54
78064;BME280;67429;51.596;-3.264;2023-04-03T02:42:46;100875.09;;;2.32;54.35
78064;BME280;67429;51.596;-3.264;2023-04-03T02:45:12;100873.64;;;2.57;53.10
78064;BME280;67429;51.596;-3.264;2023-04-03T02:47:38;100873.07;;;2.95;52.55
78064;BME280;67429;51.596;-3.264;2023-04-03T02:50:04;100872.18;;;1.96;53.78
78064;BME280;67429;51.596;-3.264;2023-04-03T02:52:28;100873.45;;;2.26;53.69
78064;BME280;67429;51.596;-3.264;2023-04-03T02:54:54;100867.33;;;1.75;55.09
78064;BME280;67429;51.596;-3.264;2023-04-03T02:57:19;100865.06;;;1.70;55.35
78064;BME280;67429;51.596;-3.264;2023-04-03T02:59:45;100870.34;;;2.38;54.03
78064;BME280;67429;51.596;-3.264;2023-04-03T03:02:11;100868.94;;;2.33;53.46
78064;BME280;67429;51.596;-3.264;2023-04-03T03:04:36;100867.57;;;2.69;52.92
78064;BME280;67429;51.596;-3.264;2023-04-03T03:07:02;100874.87;;;2.07;53.33
78064;BME280;67429;51.596;-3.264;2023-04-03T03:09:28;100875.11;;;2.27;53.98
78064;BME280;67429;51.596;-3.264;2023-04-03T03:11:53;100874.86;;;2.04;53.65
78064;BME280;67429;51.596;-3.264;2023-04-03T03:14:18;100872.44;;;2.69;52.67
78064;BME280;67429;51.596;-3.264;2023-04-03T03:16:43;100871.01;;;1.86;54.91
78064;BME280;67429;51.596;-3.264;2023-04-03T03:19:10;100873.28;;;1.66;54.66
78064;BME280;67429;51.596;-3.264;2023-04-03T03:21:39;100869.12;;;2.50;52.96
78064;BME280;67429;51.596;-3.264;2023-04-03T03:24:01;100869.81;;;2.45;53.39
78064;BME280;67429;51.596;-3.264;2023-04-03T03:26:25;100870.06;;;2.52;53.78
78064;BME280;67429;51.596;-3.264;2023-04-03T03:28:51;100875.14;;;2.35;53.70
78064;BME280;67429;51.596;-3.264;2023-04-03T03:31:16;100875.20;;;2.28;52.93
78064;BME280;67429;51.596;-3.264;2023-04-03T03:33:42;100872.70;;;2.24;53.12
78064;BME280;67429;51.596;-3.264;2023-04-03T03:36:08;100874.28;;;2.45;52.71
78064;BME280;67429;51.596;-3.264;2023-04-03T03:38:33;100868.84;;;2.12;53.99
78064;BME280;67429;51.596;-3.264;2023-04-03T03:40:59;100870.26;;;2.59;53.22
78064;BME280;67429;51.596;-3.264;2023-04-03T03:43:24;100870.62;;;1.97;54.35
78064;BME280;67429;51.596;-3.264;2023-04-03T03:45:50;100871.75;;;2.47;53.21
78064;BME280;67429;51.596;-3.264;2023-04-03T03:48:15;100871.00;;;2.21;52.89
78064;BME280;67429;51.596;-3.264;2023-04-03T03:50:40;100866.84;;;2.08;53.69
78064;BME280;67429;51.596;-3.264;2023-04-03T03:53:06;100861.60;;;2.53;53.45
78064;BME280;67429;51.596;-3.264;2023-04-03T03:55:31;100857.70;;;1.63;54.07
78064;BME280;67429;51.596;-3.264;2023-04-03T03:57:57;100862.03;;;2.30;53.83
78064;BME280;67429;51.596;-3.264;2023-04-03T04:00:23;100855.67;;;1.76;55.63
78064;BME280;67429;51.596;-3.264;2023-04-03T04:02:49;100851.23;;;2.08;54.09
78064;BME280;67429;51.596;-3.264;2023-04-03T04:05:14;100849.12;;;1.34;56.44
78064;BME280;67429;51.596;-3.264;2023-04-03T04:07:39;100850.54;;;1.21;56.12
78064;BME280;67429;51.596;-3.264;2023-04-03T04:10:05;100850.98;;;0.36;58.50
78064;BME280;67429;51.596;-3.264;2023-04-03T04:12:30;100849.86;;;1.20;56.67
78064;BME280;67429;51.596;-3.264;2023-04-03T04:14:56;100850.13;;;1.80;56.47
78064;BME280;67429;51.596;-3.264;2023-04-03T04:17:22;100854.72;;;0.88;58.32
78064;BME280;67429;51.596;-3.264;2023-04-03T04:19:47;100856.29;;;1.65;57.78
78064;BME280;67429;51.596;-3.264;2023-04-03T04:22:13;100851.55;;;1.46;58.83
78064;BME280;67429;51.596;-3.264;2023-04-03T04:24:38;100853.99;;;2.15;56.00
78064;BME280;67429;51.596;-3.264;2023-04-03T04:27:04;100848.45;;;1.97;56.08
78064;BME280;67429;51.596;-3.264;2023-04-03T04:29:30;100850.14;;;2.21;55.72
78064;BME280;67429;51.596;-3.264;2023-04-03T04:31:56;100847.63;;;2.76;55.23
78064;BME280;67429;51.596;-3.264;2023-04-03T04:34:21;100838.60;;;3.08;54.16
78064;BME280;67429;51.596;-3.264;2023-04-03T04:36:46;100841.22;;;2.88;54.55
78064;BME280;67429;51.596;-3.264;2023-04-03T04:39:12;100837.04;;;3.84;54.08
78064;BME280;67429;51.596;-3.264;2023-04-03T04:41:36;100837.49;;;3.76;53.33
78064;BME280;67429;51.596;-3.264;2023-04-03T04:44:02;100835.76;;;3.65;51.90
78064;BME280;67429;51.596;-3.264;2023-04-03T04:46:28;100836.46;;;4.03;52.07
78064;BME280;67429;51.596;-3.264;2023-04-03T04:48:53;100832.73;;;4.40;50.53
78064;BME280;67429;51.596;-3.264;2023-04-03T04:51:19;100832.95;;;4.21;50.66
78064;BME280;67429;51.596;-3.264;2023-04-03T04:53:45;100829.81;;;4.18;51.68
78064;BME280;67429;51.596;-3.264;2023-04-03T04:56:10;100826.61;;;3.88;51.56
78064;BME280;67429;51.596;-3.264;2023-04-03T04:58:36;100822.24;;;3.74;52.91
78064;BME280;67429;51.596;-3.264;2023-04-03T05:01:02;100819.28;;;3.08;53.86
78064;BME280;67429;51.596;-3.264;2023-04-03T05:03:27;100817.36;;;3.43;53.33
78064;BME280;67429;51.596;-3.264;2023-04-03T05:05:52;100812.91;;;3.96;52.93
78064;BME280;67429;51.596;-3.264;2023-04-03T05:08:18;100813.82;;;3.84;52.45
78064;BME280;67429;51.596;-3.264;2023-04-03T05:10:45;100814.25;;;3.67;51.63
78064;BME280;67429;51.596;-3.264;2023-04-03T05:13:09;100816.18;;;3.26;53.34
78064;BME280;67429;51.596;-3.264;2023-04-03T05:15:35;100814.86;;;3.34;52.72
78064;BME280;67429;51.596;-3.264;2023-04-03T05:18:01;100817.01;;;3.50;53.08
78064;BME280;67429;51.596;-3.264;2023-04-03T05:20:26;100816.63;;;3.22;53.26
78064;BME280;67429;51.596;-3.264;2023-04-03T05:22:52;100812.68;;;2.81;54.02
78064;BME280;67429;51.596;-3.264;2023-04-03T05:25:17;100813.26;;;3.30;53.92
78064;BME280;67429;51.596;-3.264;2023-04-03T05:27:43;100813.57;;;3.15;53.39
78064;BME280;67429;51.596;-3.264;2023-04-03T05:30:09;100815.13;;;2.42;54.89
78064;BME280;67429;51.596;-3.264;2023-04-03T05:32:35;100819.82;;;2.65;54.76
78064;BME280;67429;51.596;-3.264;2023-04-03T05:35:01;100816.34;;;3.11;53.25
78064;BME280;67429;51.596;-3.264;2023-04-03T05:37:27;100816.89;;;3.20;53.92
78064;BME280;67429;51.596;-3.264;2023-04-03T05:39:52;100814.13;;;2.63;53.32
78064;BME280;67429;51.596;-3.264;2023-04-03T05:42:18;100818.41;;;3.39;51.74
78064;BME280;67429;51.596;-3.264;2023-04-03T05:44:43;100822.32;;;2.53;53.84
78064;BME280;67429;51.596;-3.264;2023-04-03T05:47:09;100818.66;;;1.94;54.42
78064;BME280;67429;51.596;-3.264;2023-04-03T05:49:34;100821.77;;;1.73;55.26
78064;BME280;67429;51.596;-3.264;2023-04-03T05:52:01;100818.56;;;0.73;57.45
78064;BME280;67429;51.596;-3.264;2023-04-03T05:54:27;100819.85;;;1.50;56.45
78064;BME280;67429;51.596;-3.264;2023-04-03T05:56:51;100820.13;;;1.38;55.71
78064;BME280;67429;51.596;-3.264;2023-04-03T05:59:16;100823.98;;;1.20;56.42
78064;BME280;67429;51.596;-3.264;2023-04-03T06:01:42;100825.40;;;1.46;55.58
78064;BME280;67429;51.596;-3.264;2023-04-03T06:04:07;100825.82;;;1.56;55.79
78064;BME280;67429;51.596;-3.264;2023-04-03T06:06:43;100825.33;;;1.27;56.23
78064;BME280;67429;51.596;-3.264;2023-04-03T06:08:58;100822.01;;;1.51;55.14
78064;BME280;67429;51.596;-3.264;2023-04-03T06:11:23;100818.76;;;1.87;55.06
78064;BME280;67429;51.596;-3.264;2023-04-03T06:13:49;100818.43;;;1.79;55.04
78064;BME280;67429;51.596;-3.264;2023-04-03T06:16:15;100821.18;;;2.06;54.66
78064;BME280;67429;51.596;-3.264;2023-04-03T06:18:40;100819.42;;;2.00;54.50
78064;BME280;67429;51.596;-3.264;2023-04-03T06:21:05;100816.55;;;1.72;55.26
78064;BME280;67429;51.596;-3.264;2023-04-03T06:23:31;100815.07;;;0.55;56.99
78064;BME280;67429;51.596;-3.264;2023-04-03T06:25:57;100816.52;;;0.05;60.04
78064;BME280;67429;51.596;-3.264;2023-04-03T06:28:22;100823.19;;;0.47;59.38
78064;BME280;67429;51.596;-3.264;2023-04-03T06:30:48;100821.49;;;-0.17;60.48
78064;BME280;67429;51.596;-3.264;2023-04-03T06:33:13;100821.94;;;-0.27;62.27
78064;BME280;67429;51.596;-3.264;2023-04-03T06:35:39;100814.31;;;0.49;60.83
78064;BME280;67429;51.596;-3.264;2023-04-03T06:38:04;100813.14;;;-1.02;63.99
78064;BME280;67429;51.596;-3.264;2023-04-03T06:40:29;100812.56;;;-0.23;61.82
78064;BME280;67429;51.596;-3.264;2023-04-03T06:42:54;100811.08;;;0.52;61.56
78064;BME280;67429;51.596;-3.264;2023-04-03T06:45:20;100813.48;;;0.61;60.56
78064;BME280;67429;51.596;-3.264;2023-04-03T06:47:46;100812.68;;;0.07;61.96
78064;BME280;67429;51.596;-3.264;2023-04-03T06:50:11;100811.96;;;0.31;62.15
78064;BME280;67429;51.596;-3.264;2023-04-03T06:52:36;100823.19;;;-0.13;62.57
78064;BME280;67429;51.596;-3.264;2023-04-03T06:55:02;100819.65;;;-0.01;62.17
78064;BME280;67429;51.596;-3.264;2023-04-03T06:57:28;100822.22;;;0.90;60.21
78064;BME280;67429;51.596;-3.264;2023-04-03T06:59:53;100821.59;;;0.54;60.79
78064;BME280;67429;51.596;-3.264;2023-04-03T07:02:18;100817.61;;;0.95;60.61
78064;BME280;67429;51.596;-3.264;2023-04-03T07:04:44;100816.89;;;1.51;59.07
78064;BME280;67429;51.596;-3.264;2023-04-03T07:07:10;100817.97;;;1.66;57.58
78064;BME280;67429;51.596;-3.264;2023-04-03T07:09:35;100813.09;;;1.30;58.27
78064;BME280;67429;51.596;-3.264;2023-04-03T07:12:02;100817.53;;;1.45;58.27
78064;BME280;67429;51.596;-3.264;2023-04-03T07:14:28;100819.60;;;1.69;58.10
78064;BME280;67429;51.596;-3.264;2023-04-03T07:16:53;100819.84;;;1.66;58.45
78064;BME280;67429;51.596;-3.264;2023-04-03T07:19:18;100825.06;;;2.40;57.03
78064;BME280;67429;51.596;-3.264;2023-04-03T07:21:44;100827.60;;;2.29;56.08
78064;BME280;67429;51.596;-3.264;2023-04-03T07:24:10;100821.10;;;2.28;56.71
78064;BME280;67429;51.596;-3.264;2023-04-03T07:26:35;100825.88;;;1.83;57.61
78064;BME280;67429;51.596;-3.264;2023-04-03T07:29:02;100831.87;;;2.01;57.72
78064;BME280;67429;51.596;-3.264;2023-04-03T07:31:28;100830.44;;;1.91;56.91
78064;BME280;67429;51.596;-3.264;2023-04-03T07:33:52;100827.85;;;2.20;56.60
78064;BME280;67429;51.596;-3.264;2023-04-03T07:36:20;100831.04;;;2.48;55.96
78064;BME280;67429;51.596;-3.264;2023-04-03T07:38:44;100829.08;;;1.60;58.20
78064;BME280;67429;51.596;-3.264;2023-04-03T07:41:11;100837.34;;;2.23;57.57
78064;BME280;67429;51.596;-3.264;2023-04-03T07:43:34;100848.61;;;1.65;57.61
78064;BME280;67429;51.596;-3.264;2023-04-03T07:46:01;100844.54;;;1.83;58.20
78064;BME280;67429;51.596;-3.264;2023-04-03T07:48:26;100841.36;;;1.43;58.01
78064;BME280;67429;51.596;-3.264;2023-04-03T07:50:51;100845.62;;;0.52;59.52
78064;BME280;67429;51.596;-3.264;2023-04-03T07:53:18;100847.79;;;0.12;61.62
78064;BME280;67429;51.596;-3.264;2023-04-03T07:55:45;100847.96;;;1.31;60.09
78064;BME280;67429;51.596;-3.264;2023-04-03T07:58:09;100851.31;;;1.81;57.57
78064;BME280;67429;51.596;-3.264;2023-04-03T08:00:35;100849.32;;;1.56;57.22
78064;BME280;67429;51.596;-3.264;2023-04-03T08:03:01;100850.00;;;1.29;59.85
78064;BME280;67429;51.596;-3.264;2023-04-03T08:05:27;100847.35;;;0.65;61.08
78064;BME280;67429;51.596;-3.264;2023-04-03T08:07:52;100845.20;;;1.22;60.81
78064;BME280;67429;51.596;-3.264;2023-04-03T08:10:18;100851.49;;;1.92;58.31
78064;BME280;67429;51.596;-3.264;2023-04-03T08:12:46;100855.71;;;2.60;56.24
78064;BME280;67429;51.596;-3.264;2023-04-03T08:15:10;100855.32;;;3.09;54.57
78064;BME280;67429;51.596;-3.264;2023-04-03T08:17:35;100855.71;;;2.49;54.75
78064;BME280;67429;51.596;-3.264;2023-04-03T08:20:02;100861.96;;;2.61;55.17
78064;BME280;67429;51.596;-3.264;2023-04-03T08:22:27;100857.60;;;2.67;54.92
78064;BME280;67429;51.596;-3.264;2023-04-03T08:24:52;100860.69;;;2.30;55.94
78064;BME280;67429;51.596;-3.264;2023-04-03T08:27:18;100861.53;;;2.15;55.75
78064;BME280;67429;51.596;-3.264;2023-04-03T08:29:44;100860.25;;;2.44;55.89
78064;BME280;67429;51.596;-3.264;2023-04-03T08:32:10;100856.50;;;3.07;54.47
78064;BME280;67429;51.596;-3.264;2023-04-03T08:34:35;100854.40;;;3.56;54.59
78064;BME280;67429;51.596;-3.264;2023-04-03T08:37:01;100854.91;;;3.40;53.33
78064;BME280;67429;51.596;-3.264;2023-04-03T08:39:28;100862.98;;;3.12;53.45
78064;BME280;67429;51.596;-3.264;2023-04-03T08:41:55;100865.46;;;3.08;53.68
78064;BME280;67429;51.596;-3.264;2023-04-03T08:44:25;100864.18;;;3.02;54.43
78064;BME280;67429;51.596;-3.264;2023-04-03T08:46:56;100860.11;;;3.48;53.48
78064;BME280;67429;51.596;-3.264;2023-04-03T08:49:17;100858.55;;;3.59;53.35
78064;BME280;67429;51.596;-3.264;2023-04-03T08:51:36;100861.33;;;4.17;51.59
78064;BME280;67429;51.596;-3.264;2023-04-03T08:54:06;100856.85;;;4.19;50.54
78064;BME280;67429;51.596;-3.264;2023-04-03T08:56:28;100860.37;;;4.05;51.00
78064;BME280;67429;51.596;-3.264;2023-04-03T08:58:57;100865.26;;;2.90;53.97
78064;BME280;67429;51.596;-3.264;2023-04-03T09:01:21;100858.55;;;2.62;54.46
78064;BME280;67429;51.596;-3.264;2023-04-03T09:03:44;100860.10;;;2.48;54.87
78064;BME280;67429;51.596;-3.264;2023-04-03T09:06:14;100848.76;;;3.79;52.58
78064;BME280;67429;51.596;-3.264;2023-04-03T09:08:42;100853.62;;;2.87;53.17
78064;BME280;67429;51.596;-3.264;2023-04-03T09:11:11;100844.18;;;3.31;52.62
78064;BME280;67429;51.596;-3.264;2023-04-03T09:13:32;100840.99;;;3.49;53.97
78064;BME280;67429;51.596;-3.264;2023-04-03T09:15:54;100838.14;;;4.23;51.49
78064;BME280;67429;51.596;-3.264;2023-04-03T09:18:21;100840.02;;;4.87;49.82
78064;BME280;67429;51.596;-3.264;2023-04-03T09:20:52;100839.15;;;4.89;49.70
78064;BME280;67429;51.596;-3.264;2023-04-03T09:23:22;100848.86;;;5.54;49.04
78064;BME280;67429;51.596;-3.264;2023-04-03T09:25:37;100842.05;;;4.16;50.75
78064;BME280;67429;51.596;-3.264;2023-04-03T09:28:02;100834.31;;;4.24;50.78
78064;BME280;67429;51.596;-3.264;2023-04-03T09:30:28;100842.30;;;3.98;52.37
78064;BME280;67429;51.596;-3.264;2023-04-03T09:32:55;100833.07;;;3.35;53.52
78064;BME280;67429;51.596;-3.264;2023-04-03T09:35:23;100831.17;;;4.87;50.45
78064;BME280;67429;51.596;-3.264;2023-04-03T09:37:46;100827.11;;;4.84;49.55
78064;BME280;67429;51.596;-3.264;2023-04-03T09:42:40;100830.21;;;4.44;49.85
78064;BME280;67429;51.596;-3.264;2023-04-03T09:45:04;100832.13;;;5.52;49.03
78064;BME280;67429;51.596;-3.264;2023-04-03T09:47:30;100830.75;;;5.18;48.84
78064;BME280;67429;51.596;-3.264;2023-04-03T09:50:15;100830.57;;;5.95;48.22
78064;BME280;67429;51.596;-3.264;2023-04-03T09:52:22;100840.18;;;6.96;46.00
78064;BME280;67429;51.596;-3.264;2023-04-03T09:54:45;100833.96;;;7.15;44.47
78064;BME280;67429;51.596;-3.264;2023-04-03T09:57:12;100845.29;;;6.12;45.20
78064;BME280;67429;51.596;-3.264;2023-04-03T09:59:40;100843.40;;;6.55;44.70
78064;BME280;67429;51.596;-3.264;2023-04-03T10:02:15;100843.76;;;6.19;45.58
78064;BME280;67429;51.596;-3.264;2023-04-03T10:04:38;100844.44;;;7.22;43.97
78064;BME280;67429;51.596;-3.264;2023-04-03T10:06:55;100843.17;;;7.39;43.75
78064;BME280;67429;51.596;-3.264;2023-04-03T10:09:21;100834.03;;;6.89;45.03
78064;BME280;67429;51.596;-3.264;2023-04-03T10:14:16;100835.15;;;6.82;43.82
78064;BME280;67429;51.596;-3.264;2023-04-03T10:16:39;100828.64;;;7.39;44.11
78064;BME280;67429;51.596;-3.264;2023-04-03T10:19:21;100826.89;;;7.05;44.18
78064;BME280;67429;51.596;-3.264;2023-04-03T10:21:35;100827.76;;;7.97;42.00
78064;BME280;67429;51.596;-3.264;2023-04-03T10:24:00;100828.07;;;7.83;41.92
78064;BME280;67429;51.596;-3.264;2023-04-03T10:26:29;100827.88;;;7.71;42.30
78064;BME280;67429;51.596;-3.264;2023-04-03T10:28:48;100828.57;;;7.55;43.11
78064;BME280;67429;51.596;-3.264;2023-04-03T10:31:13;100833.14;;;5.95;45.05
78064;BME280;67429;51.596;-3.264;2023-04-03T10:33:44;100830.29;;;6.04;44.27
78064;BME280;67429;51.596;-3.264;2023-04-03T10:36:09;100824.12;;;7.07;43.90
78064;BME280;67429;51.596;-3.264;2023-04-03T10:38:33;100816.93;;;6.13;45.72
78064;BME280;67429;51.596;-3.264;2023-04-03T10:40:57;100816.85;;;7.66;44.01
78064;BME280;67429;51.596;-3.264;2023-04-03T10:43:21;100811.43;;;7.88;42.93
78064;BME280;67429;51.596;-3.264;2023-04-03T10:45:51;100813.86;;;7.29;41.81
78064;BME280;67429;51.596;-3.264;2023-04-03T10:48:14;100815.06;;;8.40;41.72
78064;BME280;67429;51.596;-3.264;2023-04-03T10:50:41;100817.24;;;8.14;42.02
78064;BME280;67429;51.596;-3.264;2023-04-03T10:53:06;100822.40;;;8.61;40.73
78064;BME280;67429;51.596;-3.264;2023-04-03T10:55:36;100819.73;;;9.20;40.26
78064;BME280;67429;51.596;-3.264;2023-04-03T10:57:54;100811.77;;;9.48;39.28
78064;BME280;67429;51.596;-3.264;2023-04-03T11:00:21;100820.56;;;9.31;39.44
78064;BME280;67429;51.596;-3.264;2023-04-03T11:02:48;100813.65;;;9.67;39.59
78064;BME280;67429;51.596;-3.264;2023-04-03T11:05:17;100817.41;;;8.60;39.43
78064;BME280;67429;51.596;-3.264;2023-04-03T11:07:39;100807.12;;;8.99;39.60
78064;BME280;67429;51.596;-3.264;2023-04-03T11:10:03;100809.77;;;8.38;40.79
78064;BME280;67429;51.596;-3.264;2023-04-03T11:12:31;100811.07;;;9.54;39.43
78064;BME280;67429;51.596;-3.264;2023-04-03T11:14:52;100804.91;;;9.09;39.24
78064;BME280;67429;51.596;-3.264;2023-04-03T11:17:25;100808.61;;;8.55;39.47
78064;BME280;67429;51.596;-3.264;2023-04-03T11:19:47;100804.83;;;8.21;41.37
78064;BME280;67429;51.596;-3.264;2023-04-03T11:22:13;100799.72;;;9.07;40.00
78064;BME280;67429;51.596;-3.264;2023-04-03T11:24:34;100797.18;;;9.19;38.65
78064;BME280;67429;51.596;-3.264;2023-04-03T11:27:01;100798.94;;;9.85;38.04
78064;BME280;67429;51.596;-3.264;2023-04-03T11:29:29;100792.25;;;9.91;37.92
78064;BME280;67429;51.596;-3.264;2023-04-03T11:32:01;100785.65;;;9.99;38.18
78064;BME280;67429;51.596;-3.264;2023-04-03T11:34:25;100791.39;;;10.16;38.23
78064;BME280;67429;51.596;-3.264;2023-04-03T11:36:45;100789.91;;;9.93;38.81
78064;BME280;67429;51.596;-3.264;2023-04-03T11:39:16;100788.05;;;9.70;39.22
78064;BME280;67429;51.596;-3.264;2023-04-03T11:41:33;100786.65;;;9.67;38.33
78064;BME280;67429;51.596;-3.264;2023-04-03T11:44:01;100783.73;;;10.57;39.16
78064;BME280;67429;51.596;-3.264;2023-04-03T11:48:51;100777.04;;;10.23;38.71
78064;BME280;67429;51.596;-3.264;2023-04-03T11:53:41;100775.79;;;10.71;36.20
78064;BME280;67429;51.596;-3.264;2023-04-03T11:58:33;100766.36;;;10.88;36.73
78064;BME280;67429;51.596;-3.264;2023-04-03T12:01:00;100765.42;;;10.87;36.49
78064;BME280;67429;51.596;-3.264;2023-04-03T12:05:49;100761.53;;;10.77;37.14
78064;BME280;67429;51.596;-3.264;2023-04-03T12:08:24;100763.55;;;10.37;36.41
78064;BME280;67429;51.596;-3.264;2023-04-03T12:10:39;100760.62;;;11.05;36.41
78064;BME280;67429;51.596;-3.264;2023-04-03T12:13:14;100750.46;;;11.46;36.02
78064;BME280;67429;51.596;-3.264;2023-04-03T12:15:44;100755.09;;;11.58;36.07
78064;BME280;67429;51.596;-3.264;2023-04-03T12:17:57;100748.95;;;9.90;36.86
78064;BME280;67429;51.596;-3.264;2023-04-03T12:27:40;100751.56;;;11.66;34.80
78064;BME280;67429;51.596;-3.264;2023-04-03T12:30:13;100743.07;;;12.38;34.94
78064;BME280;67429;51.596;-3.264;2023-04-03T12:35:08;100739.64;;;11.32;35.48
78064;BME280;67429;51.596;-3.264;2023-04-03T12:37:34;100740.62;;;10.73;36.59
78064;BME280;67429;51.596;-3.264;2023-04-03T12:39:52;100727.61;;;11.75;36.59
78064;BME280;67429;51.596;-3.264;2023-04-03T12:42:24;100729.43;;;11.90;34.64
78064;BME280;67429;51.596;-3.264;2023-04-03T12:44:47;100726.54;;;12.26;35.11
78064;BME280;67429;51.596;-3.264;2023-04-03T12:49:37;100711.79;;;12.84;34.40
78064;BME280;67429;51.596;-3.264;2023-04-03T12:51:54;100715.39;;;12.96;32.84
78064;BME280;67429;51.596;-3.264;2023-04-03T12:54:23;100709.48;;;12.50;33.40
78064;BME280;67429;51.596;-3.264;2023-04-03T12:56:45;100705.22;;;11.61;35.29
78064;BME280;67429;51.596;-3.264;2023-04-03T12:59:18;100710.67;;;12.17;34.83
78064;BME280;67429;51.596;-3.264;2023-04-03T13:01:35;100712.02;;;12.45;33.77
78064;BME280;67429;51.596;-3.264;2023-04-03T13:04:02;100712.97;;;12.91;33.08
78064;BME280;67429;51.596;-3.264;2023-04-03T13:06:30;100706.73;;;11.56;35.21